<?xml version="1.0" encoding="ISO-8859-1" standalone="yes"?>
<gpx
 version="1.0"
 creator="OziExplorer Version 3954q - http://www.oziexplorer.com"
 xmlns:xsi="http://www.w3.org/2001/XMLSchema-instance"
 xmlns="http://www.topografix.com/GPX/1/0"
 xsi:schemaLocation="http://www.topografix.com/GPX/1/0 http://www.topografix.com/GPX/1/0/gpx.xsd">
<time>2017-03-11T16:30:55Z</time>
<bounds minlat="38.706162" minlon="-5.809678" maxlat="38.725377" maxlon="-5.798575"/>
<wpt lat="38.7241580" lon="-5.8080020">
 <ele>484.299988</ele>
 <time>2007-11-20T03:09:42.000Z</time>
 <name>Fin Ruta / Cruz de Lope</name>
</wpt>
<wpt lat="38.7130150" lon="-5.8108930">
 <ele>418.099976</ele>
 <time>2007-11-20T03:09:42.000Z</time>
 <name>Muro de Leyenda</name>
</wpt>
<wpt lat="38.7049430" lon="-5.7997969">
 <ele>432.000000</ele>
 <time>2007-11-20T03:09:42.000Z</time>
 <name>INICIO</name>
</wpt>
<trk>
 <desc>Track- filtered</desc>
<trkseg>
<trkpt lat="38.7049500" lon="-5.7998330">
<ele>418.875000</ele>
<time>2007-11-15T12:34:26.000Z</time>
</trkpt>
<trkpt lat="38.7050170" lon="-5.7999830">
<ele>418.140625</ele>
<time>2007-11-15T12:34:54.000Z</time>
</trkpt>
<trkpt lat="38.7050170" lon="-5.8000170">
<ele>418.183594</ele>
<time>2007-11-15T12:34:55.000Z</time>
</trkpt>
<trkpt lat="38.7050330" lon="-5.8000670">
<ele>418.062469</ele>
<time>2007-11-15T12:34:56.000Z</time>
</trkpt>
<trkpt lat="38.7050670" lon="-5.8001000">
<ele>417.546875</ele>
<time>2007-11-15T12:34:57.000Z</time>
</trkpt>
<trkpt lat="38.7050830" lon="-5.8001500">
<ele>417.398438</ele>
<time>2007-11-15T12:34:58.000Z</time>
</trkpt>
<trkpt lat="38.7051670" lon="-5.8002999">
<ele>416.531250</ele>
<time>2007-11-15T12:35:01.000Z</time>
</trkpt>
<trkpt lat="38.7051830" lon="-5.8003500">
<ele>416.449219</ele>
<time>2007-11-15T12:35:02.000Z</time>
</trkpt>
<trkpt lat="38.7052500" lon="-5.8004670">
<ele>415.976532</ele>
<time>2007-11-15T12:35:05.000Z</time>
</trkpt>
<trkpt lat="38.7053500" lon="-5.8007169">
<ele>414.703125</ele>
<time>2007-11-15T12:35:11.000Z</time>
</trkpt>
<trkpt lat="38.7053670" lon="-5.8007670">
<ele>414.515625</ele>
<time>2007-11-15T12:35:12.000Z</time>
</trkpt>
<trkpt lat="38.7054000" lon="-5.8008000">
<ele>414.132813</ele>
<time>2007-11-15T12:35:13.000Z</time>
</trkpt>
<trkpt lat="38.7054670" lon="-5.8009670">
<ele>413.789063</ele>
<time>2007-11-15T12:35:17.000Z</time>
</trkpt>
<trkpt lat="38.7057170" lon="-5.8017170">
<ele>412.746094</ele>
<time>2007-11-15T12:35:32.000Z</time>
</trkpt>
<trkpt lat="38.7057170" lon="-5.8017669">
<ele>412.851563</ele>
<time>2007-11-15T12:35:33.000Z</time>
</trkpt>
<trkpt lat="38.7057330" lon="-5.8018000">
<ele>412.929688</ele>
<time>2007-11-15T12:35:34.000Z</time>
</trkpt>
<trkpt lat="38.7057330" lon="-5.8018830">
<ele>412.593750</ele>
<time>2007-11-15T12:35:56.000Z</time>
</trkpt>
<trkpt lat="38.7057170" lon="-5.8019330">
<ele>412.273438</ele>
<time>2007-11-15T12:35:58.000Z</time>
</trkpt>
<trkpt lat="38.7057170" lon="-5.8022670">
<ele>410.734375</ele>
<time>2007-11-15T12:36:05.000Z</time>
</trkpt>
<trkpt lat="38.7057830" lon="-5.8026500">
<ele>408.023438</ele>
<time>2007-11-15T12:36:11.000Z</time>
</trkpt>
<trkpt lat="38.7058170" lon="-5.8027170">
<ele>407.640594</ele>
<time>2007-11-15T12:36:12.000Z</time>
</trkpt>
<trkpt lat="38.7058830" lon="-5.8029000">
<ele>406.632813</ele>
<time>2007-11-15T12:36:15.000Z</time>
</trkpt>
<trkpt lat="38.7060500" lon="-5.8032500">
<ele>405.015625</ele>
<time>2007-11-15T12:36:20.000Z</time>
</trkpt>
<trkpt lat="38.7064170" lon="-5.8040830">
<ele>401.128906</ele>
<time>2007-11-15T12:36:31.000Z</time>
</trkpt>
<trkpt lat="38.7065000" lon="-5.8042330">
<ele>399.957031</ele>
<time>2007-11-15T12:36:33.000Z</time>
</trkpt>
<trkpt lat="38.7065330" lon="-5.8043170">
<ele>398.863281</ele>
<time>2007-11-15T12:36:34.000Z</time>
</trkpt>
<trkpt lat="38.7066000" lon="-5.8044670">
<ele>397.324219</ele>
<time>2007-11-15T12:36:36.000Z</time>
</trkpt>
<trkpt lat="38.7066830" lon="-5.8046170">
<ele>395.875000</ele>
<time>2007-11-15T12:36:38.000Z</time>
</trkpt>
<trkpt lat="38.7069670" lon="-5.8050670">
<ele>390.515625</ele>
<time>2007-11-15T12:36:44.000Z</time>
</trkpt>
<trkpt lat="38.7070170" lon="-5.8051330">
<ele>389.683594</ele>
<time>2007-11-15T12:36:45.000Z</time>
</trkpt>
<trkpt lat="38.7073330" lon="-5.8054330">
<ele>385.066406</ele>
<time>2007-11-15T12:36:50.000Z</time>
</trkpt>
<trkpt lat="38.7074000" lon="-5.8054830">
<ele>384.179688</ele>
<time>2007-11-15T12:36:51.000Z</time>
</trkpt>
<trkpt lat="38.7076830" lon="-5.8057670">
<ele>380.867157</ele>
<time>2007-11-15T12:36:57.000Z</time>
</trkpt>
<trkpt lat="38.7077170" lon="-5.8058170">
<ele>380.625000</ele>
<time>2007-11-15T12:36:58.000Z</time>
</trkpt>
<trkpt lat="38.7077330" lon="-5.8058670">
<ele>380.304688</ele>
<time>2007-11-15T12:36:59.000Z</time>
</trkpt>
<trkpt lat="38.7078000" lon="-5.8060000">
<ele>379.468750</ele>
<time>2007-11-15T12:37:01.000Z</time>
</trkpt>
<trkpt lat="38.7078830" lon="-5.8061170">
<ele>379.167969</ele>
<time>2007-11-15T12:37:03.000Z</time>
</trkpt>
<trkpt lat="38.7079170" lon="-5.8061830">
<ele>378.914063</ele>
<time>2007-11-15T12:37:04.000Z</time>
</trkpt>
<trkpt lat="38.7080000" lon="-5.8063000">
<ele>378.406250</ele>
<time>2007-11-15T12:37:06.000Z</time>
</trkpt>
<trkpt lat="38.7081330" lon="-5.8064500">
<ele>377.992188</ele>
<time>2007-11-15T12:37:09.000Z</time>
</trkpt>
<trkpt lat="38.7082330" lon="-5.8066000">
<ele>377.531250</ele>
<time>2007-11-15T12:37:12.000Z</time>
</trkpt>
<trkpt lat="38.7082670" lon="-5.8066500">
<ele>377.382813</ele>
<time>2007-11-15T12:37:13.000Z</time>
</trkpt>
<trkpt lat="38.7083500" lon="-5.8067500">
<ele>377.589813</ele>
<time>2007-11-15T12:37:15.000Z</time>
</trkpt>
<trkpt lat="38.7084170" lon="-5.8068500">
<ele>377.437500</ele>
<time>2007-11-15T12:37:17.000Z</time>
</trkpt>
<trkpt lat="38.7084670" lon="-5.8068830">
<ele>377.648438</ele>
<time>2007-11-15T12:37:18.000Z</time>
</trkpt>
<trkpt lat="38.7085330" lon="-5.8069830">
<ele>377.410156</ele>
<time>2007-11-15T12:37:20.000Z</time>
</trkpt>
<trkpt lat="38.7085830" lon="-5.8070330">
<ele>377.554718</ele>
<time>2007-11-15T12:37:21.000Z</time>
</trkpt>
<trkpt lat="38.7086000" lon="-5.8070830">
<ele>377.230469</ele>
<time>2007-11-15T12:37:22.000Z</time>
</trkpt>
<trkpt lat="38.7086330" lon="-5.8071330">
<ele>377.128906</ele>
<time>2007-11-15T12:37:23.000Z</time>
</trkpt>
<trkpt lat="38.7086500" lon="-5.8072000">
<ele>376.671906</ele>
<time>2007-11-15T12:37:24.000Z</time>
</trkpt>
<trkpt lat="38.7086830" lon="-5.8072670">
<ele>376.402313</ele>
<time>2007-11-15T12:37:25.000Z</time>
</trkpt>
<trkpt lat="38.7087000" lon="-5.8074329">
<ele>375.113281</ele>
<time>2007-11-15T12:37:27.000Z</time>
</trkpt>
<trkpt lat="38.7087330" lon="-5.8075170">
<ele>374.832031</ele>
<time>2007-11-15T12:37:28.000Z</time>
</trkpt>
<trkpt lat="38.7088330" lon="-5.8079830">
<ele>371.394531</ele>
<time>2007-11-15T12:37:34.000Z</time>
</trkpt>
<trkpt lat="38.7090000" lon="-5.8084500">
<ele>367.355469</ele>
<time>2007-11-15T12:37:41.000Z</time>
</trkpt>
<trkpt lat="38.7090170" lon="-5.8086330">
<ele>365.804688</ele>
<time>2007-11-15T12:37:44.000Z</time>
</trkpt>
<trkpt lat="38.7089670" lon="-5.8088999">
<ele>364.457062</ele>
<time>2007-11-15T12:48:58.000Z</time>
</trkpt>
<trkpt lat="38.7089670" lon="-5.8090170">
<ele>364.062500</ele>
<time>2007-11-15T12:49:02.000Z</time>
</trkpt>
<trkpt lat="38.7089670" lon="-5.8090500">
<ele>363.972656</ele>
<time>2007-11-15T12:49:03.000Z</time>
</trkpt>
<trkpt lat="38.7089830" lon="-5.8090830">
<ele>363.832031</ele>
<time>2007-11-15T12:49:04.000Z</time>
</trkpt>
<trkpt lat="38.7090170" lon="-5.8091670">
<ele>363.468750</ele>
<time>2007-11-15T12:49:06.000Z</time>
</trkpt>
<trkpt lat="38.7090670" lon="-5.8092330">
<ele>363.140625</ele>
<time>2007-11-15T12:49:08.000Z</time>
</trkpt>
<trkpt lat="38.7091670" lon="-5.8093000">
<ele>362.656250</ele>
<time>2007-11-15T12:49:11.000Z</time>
</trkpt>
<trkpt lat="38.7094000" lon="-5.8093830">
<ele>362.175781</ele>
<time>2007-11-15T12:49:45.000Z</time>
</trkpt>
<trkpt lat="38.7094670" lon="-5.8093830">
<ele>362.433594</ele>
<time>2007-11-15T12:49:49.000Z</time>
</trkpt>
<trkpt lat="38.7096830" lon="-5.8094500">
<ele>363.859406</ele>
<time>2007-11-15T12:50:18.000Z</time>
</trkpt>
<trkpt lat="38.7097170" lon="-5.8094830">
<ele>364.140625</ele>
<time>2007-11-15T12:50:20.000Z</time>
</trkpt>
<trkpt lat="38.7099170" lon="-5.8096000">
<ele>366.441406</ele>
<time>2007-11-15T12:51:15.000Z</time>
</trkpt>
<trkpt lat="38.7103330" lon="-5.8097500">
<ele>372.222626</ele>
<time>2007-11-15T12:51:28.000Z</time>
</trkpt>
<trkpt lat="38.7103670" lon="-5.8097830">
<ele>372.648438</ele>
<time>2007-11-15T12:51:29.000Z</time>
</trkpt>
<trkpt lat="38.7105670" lon="-5.8098830">
<ele>375.988281</ele>
<time>2007-11-15T12:51:34.000Z</time>
</trkpt>
<trkpt lat="38.7106000" lon="-5.8099170">
<ele>376.210938</ele>
<time>2007-11-15T12:51:35.000Z</time>
</trkpt>
<trkpt lat="38.7107500" lon="-5.8099830">
<ele>378.062500</ele>
<time>2007-11-15T12:51:38.000Z</time>
</trkpt>
<trkpt lat="38.7108500" lon="-5.8100499">
<ele>379.480469</ele>
<time>2007-11-15T12:51:40.000Z</time>
</trkpt>
<trkpt lat="38.7111500" lon="-5.8102170">
<ele>384.460938</ele>
<time>2007-11-15T12:51:46.000Z</time>
</trkpt>
<trkpt lat="38.7112670" lon="-5.8103330">
<ele>385.730469</ele>
<time>2007-11-15T12:51:50.000Z</time>
</trkpt>
<trkpt lat="38.7114170" lon="-5.8104500">
<ele>388.167969</ele>
<time>2007-11-15T12:51:54.000Z</time>
</trkpt>
<trkpt lat="38.7115830" lon="-5.8106000">
<ele>389.789032</ele>
<time>2007-11-15T12:51:58.000Z</time>
</trkpt>
<trkpt lat="38.7117500" lon="-5.8107170">
<ele>391.085938</ele>
<time>2007-11-15T12:52:03.000Z</time>
</trkpt>
<trkpt lat="38.7119830" lon="-5.8108000">
<ele>393.339874</ele>
<time>2007-11-15T12:52:21.000Z</time>
</trkpt>
<trkpt lat="38.7123170" lon="-5.8107670">
<ele>398.601563</ele>
<time>2007-11-15T12:52:37.000Z</time>
</trkpt>
<trkpt lat="38.7124830" lon="-5.8108170">
<ele>399.980469</ele>
<time>2007-11-15T12:52:43.000Z</time>
</trkpt>
<trkpt lat="38.7127670" lon="-5.8108670">
<ele>402.988281</ele>
<time>2007-11-15T12:52:55.000Z</time>
</trkpt>
<trkpt lat="38.7128330" lon="-5.8109000">
<ele>403.136719</ele>
<time>2007-11-15T12:52:59.000Z</time>
</trkpt>
<trkpt lat="38.7130000" lon="-5.8109000">
<ele>404.597656</ele>
<time>2007-11-15T12:53:07.000Z</time>
</trkpt>
<trkpt lat="38.7130670" lon="-5.8108670">
<ele>405.910156</ele>
<time>2007-11-15T12:54:08.000Z</time>
</trkpt>
<trkpt lat="38.7130830" lon="-5.8108500">
<ele>406.476563</ele>
<time>2007-11-15T12:54:09.000Z</time>
</trkpt>
<trkpt lat="38.7131000" lon="-5.8108330">
<ele>407.042999</ele>
<time>2007-11-15T12:54:10.000Z</time>
</trkpt>
<trkpt lat="38.7131330" lon="-5.8107670">
<ele>408.046875</ele>
<time>2007-11-15T12:54:12.000Z</time>
</trkpt>
<trkpt lat="38.7131500" lon="-5.8103170">
<ele>412.250000</ele>
<time>2007-11-15T12:54:25.000Z</time>
</trkpt>
<trkpt lat="38.7131670" lon="-5.8102500">
<ele>412.277344</ele>
<time>2007-11-15T12:54:27.000Z</time>
</trkpt>
<trkpt lat="38.7131670" lon="-5.8100830">
<ele>413.828125</ele>
<time>2007-11-15T12:54:33.000Z</time>
</trkpt>
<trkpt lat="38.7132000" lon="-5.8099830">
<ele>414.398438</ele>
<time>2007-11-15T12:54:38.000Z</time>
</trkpt>
<trkpt lat="38.7132170" lon="-5.8099499">
<ele>414.519531</ele>
<time>2007-11-15T12:54:42.000Z</time>
</trkpt>
<trkpt lat="38.7135170" lon="-5.8097670">
<ele>413.605438</ele>
<time>2007-11-15T12:54:58.000Z</time>
</trkpt>
<trkpt lat="38.7136500" lon="-5.8097330">
<ele>413.167969</ele>
<time>2007-11-15T12:55:03.000Z</time>
</trkpt>
<trkpt lat="38.7140830" lon="-5.8095830">
<ele>413.757813</ele>
<time>2007-11-15T12:55:21.000Z</time>
</trkpt>
<trkpt lat="38.7141500" lon="-5.8095329">
<ele>414.679688</ele>
<time>2007-11-15T12:55:24.000Z</time>
</trkpt>
<trkpt lat="38.7142670" lon="-5.8094670">
<ele>415.667999</ele>
<time>2007-11-15T12:55:28.000Z</time>
</trkpt>
<trkpt lat="38.7145330" lon="-5.8093670">
<ele>416.210938</ele>
<time>2007-11-15T12:55:36.000Z</time>
</trkpt>
<trkpt lat="38.7145830" lon="-5.8093670">
<ele>415.683563</ele>
<time>2007-11-15T12:55:37.000Z</time>
</trkpt>
<trkpt lat="38.7147170" lon="-5.8093000">
<ele>416.390625</ele>
<time>2007-11-15T12:55:41.000Z</time>
</trkpt>
<trkpt lat="38.7149170" lon="-5.8092330">
<ele>416.667969</ele>
<time>2007-11-15T12:55:47.000Z</time>
</trkpt>
<trkpt lat="38.7153000" lon="-5.8091500">
<ele>415.304688</ele>
<time>2007-11-15T12:55:57.000Z</time>
</trkpt>
<trkpt lat="38.7154500" lon="-5.8090830">
<ele>415.898438</ele>
<time>2007-11-15T12:56:01.000Z</time>
</trkpt>
<trkpt lat="38.7155830" lon="-5.8089830">
<ele>416.394531</ele>
<time>2007-11-15T12:56:05.000Z</time>
</trkpt>
<trkpt lat="38.7156330" lon="-5.8089670">
<ele>415.917969</ele>
<time>2007-11-15T12:56:06.000Z</time>
</trkpt>
<trkpt lat="38.7158000" lon="-5.8088670">
<ele>417.621094</ele>
<time>2007-11-15T12:56:11.000Z</time>
</trkpt>
<trkpt lat="38.7161000" lon="-5.8088330">
<ele>417.945313</ele>
<time>2007-11-15T12:56:19.000Z</time>
</trkpt>
<trkpt lat="38.7162170" lon="-5.8088999">
<ele>417.824219</ele>
<time>2007-11-15T12:56:57.000Z</time>
</trkpt>
<trkpt lat="38.7162500" lon="-5.8088999">
<ele>417.898438</ele>
<time>2007-11-15T12:56:59.000Z</time>
</trkpt>
<trkpt lat="38.7163500" lon="-5.8088830">
<ele>418.156250</ele>
<time>2007-11-15T12:57:05.000Z</time>
</trkpt>
<trkpt lat="38.7166670" lon="-5.8087500">
<ele>419.871094</ele>
<time>2007-11-15T12:57:57.000Z</time>
</trkpt>
<trkpt lat="38.7167500" lon="-5.8087330">
<ele>420.289063</ele>
<time>2007-11-15T12:58:00.000Z</time>
</trkpt>
<trkpt lat="38.7169170" lon="-5.8087670">
<ele>421.355438</ele>
<time>2007-11-15T12:58:06.000Z</time>
</trkpt>
<trkpt lat="38.7170670" lon="-5.8088500">
<ele>422.429688</ele>
<time>2007-11-15T12:58:11.000Z</time>
</trkpt>
<trkpt lat="38.7171830" lon="-5.8088830">
<ele>423.000000</ele>
<time>2007-11-15T12:58:14.000Z</time>
</trkpt>
<trkpt lat="38.7172330" lon="-5.8088670">
<ele>423.066406</ele>
<time>2007-11-15T12:58:15.000Z</time>
</trkpt>
<trkpt lat="38.7179670" lon="-5.8088670">
<ele>429.343781</ele>
<time>2007-11-15T12:58:28.000Z</time>
</trkpt>
<trkpt lat="38.7182000" lon="-5.8087999">
<ele>431.742218</ele>
<time>2007-11-15T12:58:32.000Z</time>
</trkpt>
<trkpt lat="38.7185330" lon="-5.8086330">
<ele>435.812500</ele>
<time>2007-11-15T12:58:39.000Z</time>
</trkpt>
<trkpt lat="38.7187670" lon="-5.8085170">
<ele>437.800781</ele>
<time>2007-11-15T12:58:44.000Z</time>
</trkpt>
<trkpt lat="38.7189330" lon="-5.8084829">
<ele>439.093750</ele>
<time>2007-11-15T12:58:47.000Z</time>
</trkpt>
<trkpt lat="38.7191170" lon="-5.8084829">
<ele>440.496094</ele>
<time>2007-11-15T12:58:50.000Z</time>
</trkpt>
<trkpt lat="38.7195170" lon="-5.8085330">
<ele>443.289063</ele>
<time>2007-11-15T12:58:56.000Z</time>
</trkpt>
<trkpt lat="38.7199830" lon="-5.8086830">
<ele>448.304688</ele>
<time>2007-11-15T12:59:04.000Z</time>
</trkpt>
<trkpt lat="38.7201170" lon="-5.8086830">
<ele>449.738281</ele>
<time>2007-11-15T12:59:06.000Z</time>
</trkpt>
<trkpt lat="38.7203830" lon="-5.8086170">
<ele>454.261719</ele>
<time>2007-11-15T12:59:10.000Z</time>
</trkpt>
<trkpt lat="38.7207000" lon="-5.8084670">
<ele>459.828125</ele>
<time>2007-11-15T12:59:18.000Z</time>
</trkpt>
<trkpt lat="38.7208670" lon="-5.8084330">
<ele>462.183594</ele>
<time>2007-11-15T12:59:22.000Z</time>
</trkpt>
<trkpt lat="38.7210170" lon="-5.8084330">
<ele>464.128906</ele>
<time>2007-11-15T12:59:25.000Z</time>
</trkpt>
<trkpt lat="38.7211670" lon="-5.8084670">
<ele>465.835938</ele>
<time>2007-11-15T12:59:28.000Z</time>
</trkpt>
<trkpt lat="38.7214330" lon="-5.8084670">
<ele>467.089844</ele>
<time>2007-11-15T12:59:33.000Z</time>
</trkpt>
<trkpt lat="38.7216500" lon="-5.8084500">
<ele>467.902344</ele>
<time>2007-11-15T12:59:57.000Z</time>
</trkpt>
<trkpt lat="38.7216830" lon="-5.8084330">
<ele>468.140625</ele>
<time>2007-11-15T12:59:58.000Z</time>
</trkpt>
<trkpt lat="38.7225000" lon="-5.8084000">
<ele>469.640625</ele>
<time>2007-11-15T13:00:41.000Z</time>
</trkpt>
<trkpt lat="38.7227330" lon="-5.8083500">
<ele>470.644531</ele>
<time>2007-11-15T13:00:44.000Z</time>
</trkpt>
<trkpt lat="38.7228170" lon="-5.8083500">
<ele>470.644531</ele>
<time>2007-11-15T13:00:45.000Z</time>
</trkpt>
<trkpt lat="38.7229500" lon="-5.8083170">
<ele>471.253906</ele>
<time>2007-11-15T13:00:47.000Z</time>
</trkpt>
<trkpt lat="38.7233830" lon="-5.8082830">
<ele>471.113281</ele>
<time>2007-11-15T13:00:53.000Z</time>
</trkpt>
<trkpt lat="38.7238000" lon="-5.8081669">
<ele>473.003906</ele>
<time>2007-11-15T13:00:59.000Z</time>
</trkpt>
<trkpt lat="38.7239170" lon="-5.8081330">
<ele>473.488281</ele>
<time>2007-11-15T13:01:01.000Z</time>
</trkpt>
<trkpt lat="38.7240670" lon="-5.8080670">
<ele>474.246094</ele>
<time>2007-11-15T13:01:05.000Z</time>
</trkpt>
<trkpt lat="38.7241330" lon="-5.8080170">
<ele>474.589874</ele>
<time>2007-11-15T13:01:07.000Z</time>
</trkpt>
<trkpt lat="38.7241170" lon="-5.8080000">
<ele>474.656250</ele>
<time>2007-11-15T13:03:30.000Z</time>
</trkpt>
<trkpt lat="38.7241330" lon="-5.8080170">
<ele>474.589874</ele>
<time>2007-11-15T13:01:07.000Z</time>
</trkpt>
<trkpt lat="38.7240670" lon="-5.8080670">
<ele>474.246094</ele>
<time>2007-11-15T13:01:05.000Z</time>
</trkpt>
<trkpt lat="38.7239170" lon="-5.8081330">
<ele>473.488281</ele>
<time>2007-11-15T13:01:01.000Z</time>
</trkpt>
<trkpt lat="38.7233830" lon="-5.8082830">
<ele>471.113281</ele>
<time>2007-11-15T13:00:53.000Z</time>
</trkpt>
<trkpt lat="38.7229500" lon="-5.8083170">
<ele>471.253906</ele>
<time>2007-11-15T13:00:47.000Z</time>
</trkpt>
<trkpt lat="38.7225000" lon="-5.8084000">
<ele>469.640625</ele>
<time>2007-11-15T13:00:41.000Z</time>
</trkpt>
<trkpt lat="38.7216830" lon="-5.8084330">
<ele>468.140625</ele>
<time>2007-11-15T12:59:58.000Z</time>
</trkpt>
<trkpt lat="38.7214830" lon="-5.8084670">
<ele>467.250000</ele>
<time>2007-11-15T12:59:34.000Z</time>
</trkpt>
<trkpt lat="38.7212330" lon="-5.8084670">
<ele>466.242188</ele>
<time>2007-11-15T12:59:29.000Z</time>
</trkpt>
<trkpt lat="38.7210170" lon="-5.8084330">
<ele>464.128906</ele>
<time>2007-11-15T12:59:25.000Z</time>
</trkpt>
<trkpt lat="38.7208670" lon="-5.8084330">
<ele>462.183594</ele>
<time>2007-11-15T12:59:22.000Z</time>
</trkpt>
<trkpt lat="38.7207000" lon="-5.8084670">
<ele>459.828125</ele>
<time>2007-11-15T12:59:18.000Z</time>
</trkpt>
<trkpt lat="38.7204830" lon="-5.8085830">
<ele>456.375000</ele>
<time>2007-11-15T12:59:12.000Z</time>
</trkpt>
<trkpt lat="38.7201170" lon="-5.8086830">
<ele>449.738281</ele>
<time>2007-11-15T12:59:06.000Z</time>
</trkpt>
<trkpt lat="38.7199830" lon="-5.8086830">
<ele>448.304688</ele>
<time>2007-11-15T12:59:04.000Z</time>
</trkpt>
<trkpt lat="38.7195830" lon="-5.8085500">
<ele>443.921875</ele>
<time>2007-11-15T12:58:57.000Z</time>
</trkpt>
<trkpt lat="38.7190500" lon="-5.8084829">
<ele>440.000000</ele>
<time>2007-11-15T12:58:49.000Z</time>
</trkpt>
<trkpt lat="38.7188170" lon="-5.8085000">
<ele>438.167969</ele>
<time>2007-11-15T12:58:45.000Z</time>
</trkpt>
<trkpt lat="38.7182500" lon="-5.8087830">
<ele>432.425781</ele>
<time>2007-11-15T12:58:33.000Z</time>
</trkpt>
<trkpt lat="38.7179670" lon="-5.8088670">
<ele>429.343781</ele>
<time>2007-11-15T12:58:28.000Z</time>
</trkpt>
<trkpt lat="38.7177330" lon="-5.8088500">
<ele>426.820313</ele>
<time>2007-11-15T12:58:24.000Z</time>
</trkpt>
<trkpt lat="38.7174500" lon="-5.8088500">
<ele>424.304718</ele>
<time>2007-11-15T12:58:19.000Z</time>
</trkpt>
<trkpt lat="38.7171830" lon="-5.8088830">
<ele>423.000000</ele>
<time>2007-11-15T12:58:14.000Z</time>
</trkpt>
<trkpt lat="38.7170670" lon="-5.8088500">
<ele>422.429688</ele>
<time>2007-11-15T12:58:11.000Z</time>
</trkpt>
<trkpt lat="38.7169170" lon="-5.8087670">
<ele>421.355438</ele>
<time>2007-11-15T12:58:06.000Z</time>
</trkpt>
<trkpt lat="38.7167830" lon="-5.8087330">
<ele>420.507813</ele>
<time>2007-11-15T12:58:01.000Z</time>
</trkpt>
<trkpt lat="38.7166670" lon="-5.8087500">
<ele>419.871094</ele>
<time>2007-11-15T12:57:57.000Z</time>
</trkpt>
<trkpt lat="38.7166170" lon="-5.8087830">
<ele>419.765625</ele>
<time>2007-11-15T12:57:55.000Z</time>
</trkpt>
<trkpt lat="38.7162830" lon="-5.8088999">
<ele>417.968750</ele>
<time>2007-11-15T12:57:01.000Z</time>
</trkpt>
<trkpt lat="38.7162170" lon="-5.8088999">
<ele>417.824219</ele>
<time>2007-11-15T12:56:57.000Z</time>
</trkpt>
<trkpt lat="38.7161000" lon="-5.8088330">
<ele>417.945313</ele>
<time>2007-11-15T12:56:19.000Z</time>
</trkpt>
<trkpt lat="38.7158330" lon="-5.8088500">
<ele>417.820313</ele>
<time>2007-11-15T12:56:12.000Z</time>
</trkpt>
<trkpt lat="38.7157330" lon="-5.8088999">
<ele>417.117188</ele>
<time>2007-11-15T12:56:09.000Z</time>
</trkpt>
<trkpt lat="38.7156670" lon="-5.8089500">
<ele>416.039063</ele>
<time>2007-11-15T12:56:07.000Z</time>
</trkpt>
<trkpt lat="38.7155830" lon="-5.8089830">
<ele>416.394531</ele>
<time>2007-11-15T12:56:05.000Z</time>
</trkpt>
<trkpt lat="38.7154500" lon="-5.8090830">
<ele>415.898438</ele>
<time>2007-11-15T12:56:01.000Z</time>
</trkpt>
<trkpt lat="38.7153000" lon="-5.8091500">
<ele>415.304688</ele>
<time>2007-11-15T12:55:57.000Z</time>
</trkpt>
<trkpt lat="38.7148500" lon="-5.8092500">
<ele>416.816406</ele>
<time>2007-11-15T12:55:45.000Z</time>
</trkpt>
<trkpt lat="38.7145830" lon="-5.8093670">
<ele>415.683563</ele>
<time>2007-11-15T12:55:37.000Z</time>
</trkpt>
<trkpt lat="38.7145330" lon="-5.8093670">
<ele>416.210938</ele>
<time>2007-11-15T12:55:36.000Z</time>
</trkpt>
<trkpt lat="38.7142670" lon="-5.8094670">
<ele>415.667999</ele>
<time>2007-11-15T12:55:28.000Z</time>
</trkpt>
<trkpt lat="38.7141500" lon="-5.8095329">
<ele>414.679688</ele>
<time>2007-11-15T12:55:24.000Z</time>
</trkpt>
<trkpt lat="38.7140830" lon="-5.8095830">
<ele>413.757813</ele>
<time>2007-11-15T12:55:21.000Z</time>
</trkpt>
<trkpt lat="38.7136500" lon="-5.8097330">
<ele>413.167969</ele>
<time>2007-11-15T12:55:03.000Z</time>
</trkpt>
<trkpt lat="38.7135170" lon="-5.8097670">
<ele>413.605438</ele>
<time>2007-11-15T12:54:58.000Z</time>
</trkpt>
<trkpt lat="38.7133170" lon="-5.8098830">
<ele>413.761719</ele>
<time>2007-11-15T12:54:48.000Z</time>
</trkpt>
<trkpt lat="38.7132000" lon="-5.8099830">
<ele>414.398438</ele>
<time>2007-11-15T12:54:38.000Z</time>
</trkpt>
<trkpt lat="38.7131670" lon="-5.8100830">
<ele>413.828125</ele>
<time>2007-11-15T12:54:33.000Z</time>
</trkpt>
<trkpt lat="38.7131670" lon="-5.8102330">
<ele>412.421844</ele>
<time>2007-11-15T12:54:28.000Z</time>
</trkpt>
<trkpt lat="38.7131500" lon="-5.8102830">
<ele>412.523438</ele>
<time>2007-11-15T12:54:26.000Z</time>
</trkpt>
<trkpt lat="38.7131500" lon="-5.8104330">
<ele>411.617188</ele>
<time>2007-11-15T12:54:21.000Z</time>
</trkpt>
<trkpt lat="38.7131330" lon="-5.8104669">
<ele>412.058594</ele>
<time>2007-11-15T12:54:20.000Z</time>
</trkpt>
<trkpt lat="38.7131330" lon="-5.8107500">
<ele>408.363281</ele>
<time>2007-11-15T12:54:13.000Z</time>
</trkpt>
<trkpt lat="38.7131000" lon="-5.8108330">
<ele>407.042999</ele>
<time>2007-11-15T12:54:10.000Z</time>
</trkpt>
<trkpt lat="38.7130330" lon="-5.8108830">
<ele>405.265594</ele>
<time>2007-11-15T12:54:06.000Z</time>
</trkpt>
<trkpt lat="38.7130000" lon="-5.8109000">
<ele>404.597656</ele>
<time>2007-11-15T12:53:07.000Z</time>
</trkpt>
<trkpt lat="38.7128330" lon="-5.8109000">
<ele>403.136719</ele>
<time>2007-11-15T12:52:59.000Z</time>
</trkpt>
<trkpt lat="38.7127670" lon="-5.8108670">
<ele>402.988281</ele>
<time>2007-11-15T12:52:55.000Z</time>
</trkpt>
<trkpt lat="38.7125670" lon="-5.8108330">
<ele>400.785187</ele>
<time>2007-11-15T12:52:46.000Z</time>
</trkpt>
<trkpt lat="38.7123170" lon="-5.8107670">
<ele>398.601563</ele>
<time>2007-11-15T12:52:37.000Z</time>
</trkpt>
<trkpt lat="38.7122170" lon="-5.8107670">
<ele>397.101563</ele>
<time>2007-11-15T12:52:33.000Z</time>
</trkpt>
<trkpt lat="38.7120500" lon="-5.8108000">
<ele>394.226593</ele>
<time>2007-11-15T12:52:25.000Z</time>
</trkpt>
<trkpt lat="38.7118500" lon="-5.8107670">
<ele>391.929688</ele>
<time>2007-11-15T12:52:12.000Z</time>
</trkpt>
<trkpt lat="38.7117000" lon="-5.8106829">
<ele>390.703125</ele>
<time>2007-11-15T12:52:01.000Z</time>
</trkpt>
<trkpt lat="38.7115830" lon="-5.8106000">
<ele>389.789032</ele>
<time>2007-11-15T12:51:58.000Z</time>
</trkpt>
<trkpt lat="38.7115500" lon="-5.8105670">
<ele>389.652344</ele>
<time>2007-11-15T12:51:57.000Z</time>
</trkpt>
<trkpt lat="38.7114670" lon="-5.8105000">
<ele>388.808594</ele>
<time>2007-11-15T12:51:55.000Z</time>
</trkpt>
<trkpt lat="38.7114170" lon="-5.8104500">
<ele>388.167969</ele>
<time>2007-11-15T12:51:54.000Z</time>
</trkpt>
<trkpt lat="38.7113000" lon="-5.8103669">
<ele>386.195343</ele>
<time>2007-11-15T12:51:51.000Z</time>
</trkpt>
<trkpt lat="38.7111500" lon="-5.8102170">
<ele>384.460938</ele>
<time>2007-11-15T12:51:46.000Z</time>
</trkpt>
<trkpt lat="38.7111000" lon="-5.8102000">
<ele>383.539032</ele>
<time>2007-11-15T12:51:45.000Z</time>
</trkpt>
<trkpt lat="38.7110170" lon="-5.8101330">
<ele>382.316437</ele>
<time>2007-11-15T12:51:43.000Z</time>
</trkpt>
<trkpt lat="38.7108500" lon="-5.8100499">
<ele>379.480469</ele>
<time>2007-11-15T12:51:40.000Z</time>
</trkpt>
<trkpt lat="38.7107500" lon="-5.8099830">
<ele>378.062500</ele>
<time>2007-11-15T12:51:38.000Z</time>
</trkpt>
<trkpt lat="38.7106000" lon="-5.8099170">
<ele>376.210938</ele>
<time>2007-11-15T12:51:35.000Z</time>
</trkpt>
<trkpt lat="38.7105670" lon="-5.8098830">
<ele>375.988281</ele>
<time>2007-11-15T12:51:34.000Z</time>
</trkpt>
<trkpt lat="38.7103670" lon="-5.8097830">
<ele>372.648438</ele>
<time>2007-11-15T12:51:29.000Z</time>
</trkpt>
<trkpt lat="38.7103330" lon="-5.8097500">
<ele>372.222626</ele>
<time>2007-11-15T12:51:28.000Z</time>
</trkpt>
<trkpt lat="38.7099170" lon="-5.8096000">
<ele>366.441406</ele>
<time>2007-11-15T12:51:15.000Z</time>
</trkpt>
<trkpt lat="38.7097170" lon="-5.8094830">
<ele>364.140625</ele>
<time>2007-11-15T12:50:20.000Z</time>
</trkpt>
<trkpt lat="38.7096830" lon="-5.8094500">
<ele>363.859406</ele>
<time>2007-11-15T12:50:18.000Z</time>
</trkpt>
<trkpt lat="38.7092330" lon="-5.8093330">
<ele>362.464844</ele>
<time>2007-11-15T12:49:14.000Z</time>
</trkpt>
<trkpt lat="38.7091330" lon="-5.8092830">
<ele>362.812500</ele>
<time>2007-11-15T12:49:10.000Z</time>
</trkpt>
<trkpt lat="38.7090330" lon="-5.8092000">
<ele>363.320313</ele>
<time>2007-11-15T12:49:07.000Z</time>
</trkpt>
<trkpt lat="38.7090170" lon="-5.8091670">
<ele>363.468750</ele>
<time>2007-11-15T12:49:06.000Z</time>
</trkpt>
<trkpt lat="38.7089830" lon="-5.8090830">
<ele>363.832031</ele>
<time>2007-11-15T12:49:04.000Z</time>
</trkpt>
<trkpt lat="38.7089670" lon="-5.8090500">
<ele>363.972656</ele>
<time>2007-11-15T12:49:03.000Z</time>
</trkpt>
<trkpt lat="38.7089670" lon="-5.8088999">
<ele>364.457062</ele>
<time>2007-11-15T12:48:58.000Z</time>
</trkpt>
<trkpt lat="38.7090170" lon="-5.8086330">
<ele>365.804688</ele>
<time>2007-11-15T12:37:44.000Z</time>
</trkpt>
<trkpt lat="38.7090000" lon="-5.8084500">
<ele>367.355469</ele>
<time>2007-11-15T12:37:41.000Z</time>
</trkpt>
<trkpt lat="38.7088330" lon="-5.8079830">
<ele>371.394531</ele>
<time>2007-11-15T12:37:34.000Z</time>
</trkpt>
<trkpt lat="38.7087500" lon="-5.8076000">
<ele>374.390625</ele>
<time>2007-11-15T12:37:29.000Z</time>
</trkpt>
<trkpt lat="38.7087000" lon="-5.8074329">
<ele>375.113281</ele>
<time>2007-11-15T12:37:27.000Z</time>
</trkpt>
<trkpt lat="38.7086830" lon="-5.8072670">
<ele>376.402313</ele>
<time>2007-11-15T12:37:25.000Z</time>
</trkpt>
<trkpt lat="38.7086500" lon="-5.8072000">
<ele>376.671906</ele>
<time>2007-11-15T12:37:24.000Z</time>
</trkpt>
<trkpt lat="38.7086330" lon="-5.8071330">
<ele>377.128906</ele>
<time>2007-11-15T12:37:23.000Z</time>
</trkpt>
<trkpt lat="38.7086000" lon="-5.8070830">
<ele>377.230469</ele>
<time>2007-11-15T12:37:22.000Z</time>
</trkpt>
<trkpt lat="38.7085830" lon="-5.8070330">
<ele>377.554718</ele>
<time>2007-11-15T12:37:21.000Z</time>
</trkpt>
<trkpt lat="38.7085330" lon="-5.8069830">
<ele>377.410156</ele>
<time>2007-11-15T12:37:20.000Z</time>
</trkpt>
<trkpt lat="38.7084670" lon="-5.8068830">
<ele>377.648438</ele>
<time>2007-11-15T12:37:18.000Z</time>
</trkpt>
<trkpt lat="38.7084170" lon="-5.8068500">
<ele>377.437500</ele>
<time>2007-11-15T12:37:17.000Z</time>
</trkpt>
<trkpt lat="38.7083500" lon="-5.8067500">
<ele>377.589813</ele>
<time>2007-11-15T12:37:15.000Z</time>
</trkpt>
<trkpt lat="38.7082670" lon="-5.8066500">
<ele>377.382813</ele>
<time>2007-11-15T12:37:13.000Z</time>
</trkpt>
<trkpt lat="38.7081330" lon="-5.8064500">
<ele>377.992188</ele>
<time>2007-11-15T12:37:09.000Z</time>
</trkpt>
<trkpt lat="38.7080000" lon="-5.8063000">
<ele>378.406250</ele>
<time>2007-11-15T12:37:06.000Z</time>
</trkpt>
<trkpt lat="38.7078330" lon="-5.8060500">
<ele>379.300781</ele>
<time>2007-11-15T12:37:02.000Z</time>
</trkpt>
<trkpt lat="38.7078000" lon="-5.8060000">
<ele>379.468750</ele>
<time>2007-11-15T12:37:01.000Z</time>
</trkpt>
<trkpt lat="38.7077330" lon="-5.8058670">
<ele>380.304688</ele>
<time>2007-11-15T12:36:59.000Z</time>
</trkpt>
<trkpt lat="38.7077170" lon="-5.8058170">
<ele>380.625000</ele>
<time>2007-11-15T12:36:58.000Z</time>
</trkpt>
<trkpt lat="38.7074670" lon="-5.8055500">
<ele>383.144531</ele>
<time>2007-11-15T12:36:52.000Z</time>
</trkpt>
<trkpt lat="38.7070170" lon="-5.8051330">
<ele>389.683594</ele>
<time>2007-11-15T12:36:45.000Z</time>
</trkpt>
<trkpt lat="38.7069670" lon="-5.8050670">
<ele>390.515625</ele>
<time>2007-11-15T12:36:44.000Z</time>
</trkpt>
<trkpt lat="38.7067330" lon="-5.8047000">
<ele>394.894531</ele>
<time>2007-11-15T12:36:39.000Z</time>
</trkpt>
<trkpt lat="38.7066000" lon="-5.8044670">
<ele>397.324219</ele>
<time>2007-11-15T12:36:36.000Z</time>
</trkpt>
<trkpt lat="38.7065330" lon="-5.8043170">
<ele>398.863281</ele>
<time>2007-11-15T12:36:34.000Z</time>
</trkpt>
<trkpt lat="38.7065000" lon="-5.8042330">
<ele>399.957031</ele>
<time>2007-11-15T12:36:33.000Z</time>
</trkpt>
<trkpt lat="38.7064170" lon="-5.8040830">
<ele>401.128906</ele>
<time>2007-11-15T12:36:31.000Z</time>
</trkpt>
<trkpt lat="38.7061500" lon="-5.8034670">
<ele>403.664063</ele>
<time>2007-11-15T12:36:23.000Z</time>
</trkpt>
<trkpt lat="38.7058830" lon="-5.8029000">
<ele>406.632813</ele>
<time>2007-11-15T12:36:15.000Z</time>
</trkpt>
<trkpt lat="38.7058670" lon="-5.8028330">
<ele>407.109375</ele>
<time>2007-11-15T12:36:14.000Z</time>
</trkpt>
<trkpt lat="38.7058330" lon="-5.8027830">
<ele>407.171875</ele>
<time>2007-11-15T12:36:13.000Z</time>
</trkpt>
<trkpt lat="38.7058170" lon="-5.8027170">
<ele>407.640594</ele>
<time>2007-11-15T12:36:12.000Z</time>
</trkpt>
<trkpt lat="38.7057830" lon="-5.8026500">
<ele>408.023438</ele>
<time>2007-11-15T12:36:11.000Z</time>
</trkpt>
<trkpt lat="38.7057170" lon="-5.8022670">
<ele>410.734375</ele>
<time>2007-11-15T12:36:05.000Z</time>
</trkpt>
<trkpt lat="38.7057170" lon="-5.8019330">
<ele>412.273438</ele>
<time>2007-11-15T12:35:58.000Z</time>
</trkpt>
<trkpt lat="38.7057330" lon="-5.8018830">
<ele>412.593750</ele>
<time>2007-11-15T12:35:56.000Z</time>
</trkpt>
<trkpt lat="38.7057330" lon="-5.8018000">
<ele>412.929688</ele>
<time>2007-11-15T12:35:34.000Z</time>
</trkpt>
<trkpt lat="38.7057170" lon="-5.8017669">
<ele>412.851563</ele>
<time>2007-11-15T12:35:33.000Z</time>
</trkpt>
<trkpt lat="38.7057170" lon="-5.8017170">
<ele>412.746094</ele>
<time>2007-11-15T12:35:32.000Z</time>
</trkpt>
<trkpt lat="38.7054670" lon="-5.8009670">
<ele>413.789063</ele>
<time>2007-11-15T12:35:17.000Z</time>
</trkpt>
<trkpt lat="38.7054170" lon="-5.8008500">
<ele>414.054688</ele>
<time>2007-11-15T12:35:14.000Z</time>
</trkpt>
<trkpt lat="38.7054000" lon="-5.8008000">
<ele>414.132813</ele>
<time>2007-11-15T12:35:13.000Z</time>
</trkpt>
<trkpt lat="38.7053670" lon="-5.8007670">
<ele>414.515625</ele>
<time>2007-11-15T12:35:12.000Z</time>
</trkpt>
<trkpt lat="38.7053000" lon="-5.8005830">
<ele>415.363312</ele>
<time>2007-11-15T12:35:08.000Z</time>
</trkpt>
<trkpt lat="38.7052500" lon="-5.8004670">
<ele>415.976532</ele>
<time>2007-11-15T12:35:05.000Z</time>
</trkpt>
<trkpt lat="38.7051830" lon="-5.8003500">
<ele>416.449219</ele>
<time>2007-11-15T12:35:02.000Z</time>
</trkpt>
<trkpt lat="38.7051670" lon="-5.8002999">
<ele>416.531250</ele>
<time>2007-11-15T12:35:01.000Z</time>
</trkpt>
<trkpt lat="38.7051330" lon="-5.8002500">
<ele>416.882782</ele>
<time>2007-11-15T12:35:00.000Z</time>
</trkpt>
<trkpt lat="38.7050670" lon="-5.8001000">
<ele>417.546875</ele>
<time>2007-11-15T12:34:57.000Z</time>
</trkpt>
<trkpt lat="38.7050330" lon="-5.8000670">
<ele>418.062469</ele>
<time>2007-11-15T12:34:56.000Z</time>
</trkpt>
<trkpt lat="38.7050170" lon="-5.7999830">
<ele>418.140625</ele>
<time>2007-11-15T12:34:54.000Z</time>
</trkpt>
<trkpt lat="38.7049500" lon="-5.7998330">
<ele>418.875000</ele>
<time>2007-11-15T12:34:26.000Z</time>
</trkpt>
</trkseg>
</trk>
</gpx>
